Estación Meteorológica Peña el Pijo (Robertgarden) [ 11/16/18 15:29:26 CET ]

Fecha Hora Presion(HPa) Temp (°C) Humedad % Rocio (°C) Viento ( m/s) Direccion Lluvia 1Hora(mm) Lluvia 24H(mm) LLuvia Total(mm)
2018-Sep-18 01:01:50 1010.500 13.6 89 11.8       1.03 351.72
2018-Sep-18 02:01:44 1010.200 12.9 89 11.1       1.03 351.72
2018-Sep-18 03:02:05 1010.000 12.3 90 10.7       1.03 351.72
2018-Sep-18 04:02:05 1009.700 12.3 90 10.7       1.03 351.72
2018-Sep-18 05:02:02 1009.600 11.8 90 10.2       1.03 351.72
2018-Sep-18 06:02:00 1009.700 11.4 91 10.0       1.03 351.72
2018-Sep-18 07:01:46 1009.700 11.5 91 10.1       1.03 351.72
2018-Sep-18 08:01:40 1009.900 11.6 91 10.2       1.03 351.72
2018-Sep-18 09:01:49 1010.300 13.2 92 11.9       1.03 351.72
2018-Sep-18 10:02:05 1010.500 17.9 93 16.8       1.03 351.72
2018-Sep-18 11:01:36 1010.900 23.6 80 20.0       1.03 351.72
2018-Sep-18 12:01:50 1010.900 26.9 55 17.1       1.03 351.72
2018-Sep-18 13:02:00 1010.400 28.9 45 15.8       1.03 351.72
2018-Sep-18 14:01:42 1010.100 27.5 48 15.5       1.03 351.72
2018-Sep-18 15:01:38 1009.700 25.2 53 14.9       1.03 351.72
2018-Sep-18 16:01:37 1009.700 26.9 52 16.2       1.03 351.72
2018-Sep-18 17:01:24 1010.400 23.0 60 14.8         351.72
2018-Sep-18 18:01:35 1010.800 20.1 69 14.2     1.03 1.03 352.75
2018-Sep-18 19:01:33 1010.500 19.3 79 15.6     1.55 2.59 354.31
2018-Sep-18 20:02:01 1011.100 18.1 82 15.0       2.59 354.31
2018-Sep-18 21:02:02 1011.900 16.8 84 14.1       2.59 354.31
2018-Sep-18 22:01:50 1012.700 16.1 86 13.8       2.59 354.31
2018-Sep-18 23:01:50 1012.800 15.6 87 13.5       2.59 354.31

Temperatura Máxima:28°    Temperatura Mínima:11°
Presión Máxima:1012.800 Hpa    Presión Mínima:1009.600 Hpa


Volver